Nearby METAR Reports

METAR is the scheduled surface weather observation taken hourly at civil and military airport locations.

METAR is an acronym from the French language and roughly translates as Aviation Routine Weather Report.

 

EGPL - Benbecula Island, United Kingdom
Distance from station: WNW 41mi, 66km
Updated: 14/06/2021 23:01
unable to load EGPL data RC=
unable to load EGPL data RC=
 
EGPU - Tiree Island, United Kingdom
Distance from station: SSW 56mi, 90km
Updated: 14/06/2021 22:20
Few Clouds
Few Clouds
 Wind from W
Wind: W 7 mph , 11 km/h
Temperature: 8°C
Wind Chill: 6°C
Dew Point: 6°C
Humidity: 87%
Barometer: 1021 hPa
Clouds: Few Clouds
Visibility: 6 miles , 10 km
Cloud details: Few Clouds 1280 m
2021/06/14 21:20 EGPU 142120Z AUTO 28006KT 9999 FEW042/// 08/06 Q1021
 
EGEO - Oban Airport, United Kingdom
Distance from station: SE 65mi, 105km
Updated: 14/06/2021 13:50
NOT Current
Light drizzle, Mostly cloudy
Light drizzle, Mostly cloudy
 Wind from SW
Wind: SW 15 mph , 24 km/h
Temperature: 12°C
Dew Point: 10°C
Humidity: 88%
Barometer: 1019 hPa
Summary: Light Drizzle
Clouds: Mostly cloudy
Visibility: 6 miles , 10 km
Cloud details: Mostly cloudy 823 m
2021/06/14 12:50 EGEO 141250Z 23013KT 9999 -DZ BKN027 12/10 Q1019
EGPO - Stornoway, United Kingdom
Distance from station: 0 66mi, 106km
Updated: 14/06/2021 22:50
Overcast
Overcast
 Wind from W
Wind: W 12 mph , 19 km/h
Temperature: 10°C
Wind Chill: 7°C
Dew Point: 7°C
Humidity: 82%
Barometer: 1019 hPa
Clouds: Overcast
Visibility: 6 miles , 10 km
Cloud details: Few Clouds 701 m
Overcast 1097 m
2021/06/14 21:50 EGPO 142150Z AUTO 27010KT 9999 FEW023/// OVC036/// 10/07 Q1019
 
EGPE - Inverness/Dalcro, United Kingdom
Distance from station: ENE 88mi, 141km
Updated: 14/06/2021 22:50
Clear
Clear
 Wind from WSW
Wind: WSW 12 mph , 19 km/h
Temperature: 11°C
Dew Point: 7°C
Humidity: 77%
Barometer: 1019 hPa
Clouds: Clear
Visibility: 6 miles , 10 km
2021/06/14 21:50 EGPE 142150Z AUTO 25010KT 9999 NCD 11/07 Q1019
EGQA - Tain Range (saws, United Kingdom
Distance from station: ENE 97mi, 156km
Updated: 14/06/2021 22:50
Mostly cloudy
Mostly cloudy
 Wind from WSW
Wind: WSW 6 mph , 9 km/h
Clouds: Mostly cloudy
Visibility: 6 miles , 10 km
Cloud details: Few Clouds 427 m
Mostly cloudy 1219 m
2021/06/14 21:50 EGQA 142150Z 24005KT 9999 FEW014 BKN040 12/// Q1019 RMK BLU
 
EGQK - Kinloss Raf, United Kingdom
Distance from station: ENE 107mi, 171km
Updated: 14/06/2021 21:50
Mostly cloudy
Mostly cloudy
 Wind from WSW
Wind: WSW 14 mph , 22 km/h
Temperature: 12°C
Dew Point: 7°C
Humidity: 72%
Barometer: 1018 hPa
Clouds: Mostly cloudy
Cloud details: Mostly cloudy 1524 m
2021/06/14 20:50 EGQK 142050Z AUTO 25012KT //// BKN050/// 12/07 Q1018
EGPI - Islay/Port Ellen, United Kingdom
Distance from station: S 110mi, 177km
Updated: 14/06/2021 22:20
Overcast
Overcast
 Wind from W
Wind: W 9 mph , 15 km/h
Temperature: 11°C
Dew Point: 9°C
Humidity: 88%
Barometer: 1022 hPa
Clouds: Overcast
Visibility: 4 miles , 7 km
Cloud details: Overcast 1372 m
2021/06/14 21:20 EGPI 142120Z AUTO 27008KT 7000 OVC045/// 11/09 Q1022
 
EGQS - Lossiemouth Raf, United Kingdom
Distance from station: ENE 117mi, 188km
Updated: 14/06/2021 22:50
Clear
Clear
 Wind from WSW
Wind: WSW 8 mph , 13 km/h
Temperature: 11°C
Dew Point: 6°C
Humidity: 72%
Barometer: 1018 hPa
Summary: Clear
Visibility: greater than 7 miles , 10 km
2021/06/14 21:50 EGQS 142150Z 25007KT CAVOK 11/06 Q1018 RMK BLU
EGPF - Glasgow Airport, United Kingdom
Distance from station: SE 121mi, 195km
Updated: 14/06/2021 22:50
Few Clouds
Few Clouds
 Wind from WSW
Wind: WSW 8 mph , 13 km/h
Temperature: 10°C
Wind Chill: 8°C
Dew Point: 8°C
Humidity: 88%
Barometer: 1021 hPa
Clouds: Few Clouds
Visibility: 6 miles , 10 km
Cloud details: Few Clouds 1463 m
2021/06/14 21:50 EGPF 142150Z AUTO 25007KT 9999 FEW048 10/08 Q1021
 
EGEC - Campbeltown, United Kingdom
Distance from station: SSE 129mi, 207km
Updated: 14/06/2021 17:20
NOT Current
Mostly cloudy
Mostly cloudy
 Wind from W
Wind: W 18 mph , 30 km/h
Temperature: 12°C
Dew Point: 9°C
Humidity: 82%
Barometer: 1021 hPa
Clouds: Mostly cloudy
Visibility: 6 miles , 10 km
Cloud details: Few Clouds 488 m
Mostly cloudy 1006 m
2021/06/14 16:20 EGEC 141620Z 27016KT 9999 FEW016 BKN033 12/09 Q1021
EGPN - Dundee/Riverside, United Kingdom
Distance from station: ESE 137mi, 221km
Updated: 14/06/2021 20:50
NOT Current
Few Clouds
Few Clouds
 Wind from W
Wind: W 17 mph , 28 km/h
Temperature: 14°C
Dew Point: 10°C
Humidity: 77%
Barometer: 1019 hPa
Clouds: Few Clouds
Visibility: 6 miles , 10 km
Cloud details: Few Clouds 1097 m
2021/06/14 19:50 EGPN 141950Z 26015KT 9999 FEW036 14/10 Q1019
 
EGPK - Prestwick(Civ/Na, United Kingdom
Distance from station: SSE 139mi, 224km
Updated: 14/06/2021 22:50
Few Clouds
Few Clouds
 Wind from W
Wind: W 13 mph , 20 km/h
Temperature: 12°C
Dew Point: 8°C
Humidity: 77%
Barometer: 1022 hPa
Clouds: Few Clouds
Visibility: 6 miles , 10 km
Cloud details: Few Clouds 1463 m
2021/06/14 21:50 EGPK 142150Z 27011KT 9999 FEW048 12/08 Q1022
EGQL - Leuchars Raf, United Kingdom
Distance from station: ESE 145mi, 233km
Updated: 14/06/2021 22:50
Clear
Clear
 Wind from W
Wind: W 5 mph , 7 km/h
Temperature: 11°C
Dew Point: 7°C
Humidity: 77%
Barometer: 1019 hPa
Summary: Clear
Visibility: greater than 7 miles , 10 km
2021/06/14 21:50 EGQL 142150Z 26004KT CAVOK 11/07 Q1019 BLU
 
EGPH - Edinburgh Airpor, United Kingdom
Distance from station: SE 145mi, 234km
Updated: 14/06/2021 22:50
Few Clouds
Few Clouds
 Wind from W
Wind: W 8 mph , 13 km/h
Temperature: 11°C
Dew Point: 7°C
Humidity: 77%
Barometer: 1020 hPa
Clouds: Few Clouds
Visibility: 6 miles , 10 km
Cloud details: Few Clouds 1341 m
2021/06/14 21:50 EGPH 142150Z 27007KT 9999 FEW044 11/07 Q1020
EGPC - Wick, United Kingdom
Distance from station: NE 146mi, 234km
Updated: 14/06/2021 22:50
Partly cloudy
Partly cloudy
 Wind from W
Wind: W 15 mph , 24 km/h
Temperature: 10°C
Wind Chill: 7°C
Dew Point: 7°C
Humidity: 82%
Barometer: 1016 hPa
Clouds: Partly cloudy
Visibility: 6 miles , 10 km
Cloud details: Partly cloudy 1494 m
2021/06/14 21:50 EGPC 142150Z AUTO 27013KT 9999 SCT049/// 10/07 Q1016

-

free counters
QR Code Twitter Scottish Weather Network UK Weather Network
Argyll House B & B

Argyll House B & B is situated in North West Skye and is the perfect base to see all that the Isle of Skye has to offer. Bookings are been taken for 2021 and 2022